Time;durP1;ratioP1;P1;durP2;ratioP2;P2;SDS_P1;SDS_P2;PMS_P1;PMS_P2;Temp;Humidity;BMP_temperature;BMP_pressure;BME280_temperature;BME280_humidity;BME280_pressure;Samples;Min_cycle;Max_cycle;Signal;HPM_P1;HPM_P2
2022/05/12 00:00:47;;;;;;;;;2.25;2.25;;;;;;;;5058613;28;45519;-73
2022/05/12 00:03:14;;;;;;;;;1.75;1.75;;;;;;;;5054565;28;46387;-73
2022/05/12 00:05:39;;;;;;;;;4.75;3.00;;;;;;;;5060643;28;45490;-71
2022/05/12 00:08:05;;;;;;;;;4.00;2.75;;;;;;;;5059569;28;45374;-73
2022/05/12 00:10:30;;;;;;;;;4.75;3.50;;;;;;;;5061071;28;45578;-73
2022/05/12 00:12:57;;;;;;;;;4.25;4.25;;;;;;;;5059735;28;46294;-73
2022/05/12 00:15:24;;;;;;;;;2.00;2.00;;;;;;;;5067149;27;45442;-72
2022/05/12 00:17:49;;;;;;;;;3.75;3.75;;;;;;;;5061404;28;45561;-73
2022/05/12 00:20:16;;;;;;;;;3.25;3.00;;;;;;;;5057724;28;45685;-73
2022/05/12 00:22:41;;;;;;;;;3.75;3.75;;;;;;;;5058553;28;46104;-73
2022/05/12 00:25:12;;;;;;;;;5.00;3.00;;;;;;;;5058629;28;45309;-73
2022/05/12 00:27:37;;;;;;;;;2.00;2.00;;;;;;;;5059559;28;45423;-72
2022/05/12 00:30:05;;;;;;;;;5.25;3.25;;;;;;;;5055855;28;45347;-73
2022/05/12 00:32:30;;;;;;;;;4.00;2.75;;;;;;;;5060333;27;46080;-72
2022/05/12 00:34:55;;;;;;;;;7.75;5.25;;;;;;;;5059657;28;45382;-72
2022/05/12 00:37:20;;;;;;;;;3.50;3.50;;;;;;;;5058655;28;45248;-72
2022/05/12 00:39:45;;;;;;;;;5.50;5.00;;;;;;;;5058282;28;45485;-71
2022/05/12 00:42:11;;;;;;;;;11.75;6.75;;;;;;;;5057030;28;47390;-73
2022/05/12 00:44:36;;;;;;;;;3.00;1.00;;;;;;;;5070397;27;45316;-73
2022/05/12 00:47:01;;;;;;;;;3.00;3.00;;;;;;;;5059839;28;45398;-74
2022/05/12 00:49:31;;;;;;;;;4.00;3.00;;;;;;;;5058390;28;45585;-73
2022/05/12 00:51:58;;;;;;;;;4.75;3.75;;;;;;;;5058439;28;47166;-72
2022/05/12 00:54:26;;;;;;;;;4.00;4.00;;;;;;;;5062007;28;45694;-72
2022/05/12 00:56:52;;;;;;;;;3.00;2.25;;;;;;;;5058621;27;45394;-72
2022/05/12 00:59:21;;;;;;;;;6.25;5.50;;;;;;;;5058909;28;45416;-71
2022/05/12 01:01:46;;;;;;;;;2.00;2.00;;;;;;;;5065213;28;46099;-72
2022/05/12 01:04:12;;;;;;;;;5.00;2.25;;;;;;;;5067785;28;45386;-72
2022/05/12 01:06:37;;;;;;;;;4.25;4.00;;;;;;;;5056411;28;47037;-72
2022/05/12 01:09:02;;;;;;;;;5.25;3.75;;;;;;;;5055822;28;45412;-73
2022/05/12 01:11:27;;;;;;;;;3.50;3.50;;;;;;;;5060017;28;45284;-72
2022/05/12 01:13:56;;;;;;;;;3.75;3.25;;;;;;;;5057712;28;45626;-72
2022/05/12 01:16:42;;;;;;;;;5.75;5.75;;;;;;;;5058141;28;45534;-73
2022/05/12 01:19:12;;;;;;;;;5.00;4.75;;;;;;;;5058583;28;45491;-74
2022/05/12 01:21:37;;;;;;;;;3.50;3.50;;;;;;;;5056618;28;46340;-73
2022/05/12 01:24:03;;;;;;;;;6.00;6.00;;;;;;;;5071036;28;45405;-73
2022/05/12 01:26:28;;;;;;;;;4.75;4.50;;;;;;;;5059863;28;45383;-73
2022/05/12 01:28:53;;;;;;;;;5.25;5.25;;;;;;;;5057541;28;45510;-73
2022/05/12 01:31:20;;;;;;;;;3.25;3.25;;;;;;;;5057365;28;45892;-73
2022/05/12 01:33:45;;;;;;;;;3.50;3.00;;;;;;;;5057279;28;45422;-73
2022/05/12 01:36:10;;;;;;;;;5.00;3.50;;;;;;;;5054169;28;45385;-73
2022/05/12 01:38:36;;;;;;;;;7.25;4.75;;;;;;;;5072169;27;45394;-73
2022/05/12 01:41:01;;;;;;;;;6.25;5.00;;;;;;;;5067905;28;45287;-73
2022/05/12 01:43:26;;;;;;;;;3.50;3.25;;;;;;;;5065532;28;45494;-73
2022/05/12 01:45:51;;;;;;;;;7.75;4.00;;;;;;;;5068549;28;45355;-73
2022/05/12 01:48:17;;;;;;;;;8.25;7.00;;;;;;;;5053528;28;45536;-73
2022/05/12 01:50:44;;;;;;;;;4.50;4.50;;;;;;;;5070261;28;47182;-72
2022/05/12 01:53:10;;;;;;;;;7.25;6.00;;;;;;;;5067054;28;45490;-72
2022/05/12 01:55:35;;;;;;;;;4.00;4.00;;;;;;;;5057787;28;45340;-72
2022/05/12 01:58:00;;;;;;;;;4.00;4.00;;;;;;;;5057773;28;45454;-72
2022/05/12 02:00:27;;;;;;;;;4.00;4.00;;;;;;;;5057470;28;45584;-72
2022/05/12 02:02:52;;;;;;;;;5.25;5.25;;;;;;;;5061232;27;45336;-72
2022/05/12 02:05:18;;;;;;;;;5.00;3.00;;;;;;;;5069099;28;45462;-72
2022/05/12 02:07:45;;;;;;;;;8.00;5.00;;;;;;;;5064840;28;45419;-72
2022/05/12 02:10:12;;;;;;;;;3.75;3.50;;;;;;;;5060922;28;47141;-72
2022/05/12 02:12:37;;;;;;;;;6.50;4.00;;;;;;;;5059387;27;45507;-72
2022/05/12 02:15:03;;;;;;;;;4.75;4.75;;;;;;;;5063059;28;45379;-72
2022/05/12 02:17:28;;;;;;;;;3.75;3.75;;;;;;;;5062926;28;45435;-72
2022/05/12 02:19:53;;;;;;;;;4.75;4.00;;;;;;;;5059031;28;46865;-73
2022/05/12 02:22:18;;;;;;;;;3.00;2.75;;;;;;;;5042651;28;45462;-72
2022/05/12 02:24:44;;;;;;;;;3.50;2.75;;;;;;;;5059894;28;45568;-72
2022/05/12 02:27:09;;;;;;;;;1.75;1.75;;;;;;;;5057606;28;45403;-72
2022/05/12 02:29:34;;;;;;;;;6.00;2.50;;;;;;;;5063602;28;47322;-72
2022/05/12 02:31:59;;;;;;;;;1.50;1.50;;;;;;;;5061841;28;45595;-73
2022/05/12 02:34:25;;;;;;;;;1.00;1.00;;;;;;;;5061461;28;45474;-72
2022/05/12 02:37:02;;;;;;;;;4.00;2.25;;;;;;;;5060577;28;45355;-73
2022/05/12 02:39:28;;;;;;;;;1.00;1.00;;;;;;;;5053695;28;45804;-73
2022/05/12 02:41:53;;;;;;;;;1.25;1.25;;;;;;;;5060043;28;45716;-73
2022/05/12 02:44:19;;;;;;;;;1.50;1.50;;;;;;;;5043045;28;45266;-72
2022/05/12 02:46:44;;;;;;;;;2.00;2.00;;;;;;;;5065652;28;45548;-73
2022/05/12 02:49:09;;;;;;;;;3.50;1.75;;;;;;;;5067484;28;46100;-73
2022/05/12 02:51:34;;;;;;;;;1.75;1.75;;;;;;;;5057551;28;45224;-73
2022/05/12 02:54:00;;;;;;;;;1.25;1.00;;;;;;;;5057775;27;45507;-73
2022/05/12 02:56:26;;;;;;;;;2.00;2.00;;;;;;;;5062262;27;45325;-73
2022/05/12 02:58:51;;;;;;;;;2.00;1.00;;;;;;;;5059623;28;46285;-73
2022/05/12 03:01:16;;;;;;;;;14.50;11.75;;;;;;;;5059723;28;45405;-73
2022/05/12 03:03:41;;;;;;;;;6.25;2.25;;;;;;;;5059144;28;45431;-72
2022/05/12 03:06:06;;;;;;;;;1.50;1.50;;;;;;;;5056743;27;45478;-73
2022/05/12 03:08:32;;;;;;;;;1.25;1.25;;;;;;;;5062022;28;45429;-72
2022/05/12 03:10:57;;;;;;;;;2.50;1.00;;;;;;;;5059596;28;45313;-72
2022/05/12 03:13:23;;;;;;;;;1.00;1.00;;;;;;;;5059603;27;45456;-73
2022/05/12 03:15:48;;;;;;;;;1.75;1.75;;;;;;;;5059874;28;45383;-73
2022/05/12 03:18:13;;;;;;;;;4.25;2.75;;;;;;;;5055503;28;45715;-72
2022/05/12 03:20:39;;;;;;;;;3.00;2.00;;;;;;;;5061950;28;45443;-72
2022/05/12 03:23:04;;;;;;;;;1.75;1.00;;;;;;;;5059986;28;45610;-73
2022/05/12 03:25:30;;;;;;;;;2.50;2.00;;;;;;;;5063294;27;45569;-72
2022/05/12 03:27:55;;;;;;;;;5.50;2.25;;;;;;;;5058991;27;46171;-72
2022/05/12 03:30:22;;;;;;;;;2.75;2.50;;;;;;;;5055357;28;45513;-72
2022/05/12 03:32:48;;;;;;;;;2.75;2.75;;;;;;;;5073643;27;45651;-72
2022/05/12 03:35:13;;;;;;;;;2.75;1.00;;;;;;;;5059875;28;45546;-73
2022/05/12 03:37:39;;;;;;;;;4.00;1.00;;;;;;;;5058981;28;46298;-72
2022/05/12 03:40:06;;;;;;;;;3.00;3.00;;;;;;;;5058796;28;45301;-72
2022/05/12 03:42:31;;;;;;;;;1.25;1.00;;;;;;;;5042245;28;45383;-73
2022/05/12 03:44:59;;;;;;;;;2.75;2.00;;;;;;;;5058194;28;45466;-73
2022/05/12 03:47:28;;;;;;;;;0.00;0.00;;;;;;;;5061770;28;45424;-73
2022/05/12 03:49:57;;;;;;;;;2.00;2.00;;;;;;;;5064736;28;45592;-72
2022/05/12 03:52:23;;;;;;;;;3.00;2.00;;;;;;;;5060304;28;45589;-71
2022/05/12 03:54:48;;;;;;;;;1.50;1.50;;;;;;;;5073588;28;45464;-73
2022/05/12 03:57:15;;;;;;;;;3.00;1.00;;;;;;;;5061541;28;46051;-73
2022/05/12 03:59:41;;;;;;;;;2.00;2.00;;;;;;;;5057688;28;45356;-73
2022/05/12 04:02:07;;;;;;;;;6.00;3.00;;;;;;;;5040508;28;45691;-72
2022/05/12 04:04:32;;;;;;;;;7.50;6.00;;;;;;;;5058756;28;45466;-73
2022/05/12 04:06:58;;;;;;;;;3.00;2.75;;;;;;;;5052125;28;46074;-73
2022/05/12 04:09:23;;;;;;;;;3.00;1.75;;;;;;;;5050478;28;45347;-74
2022/05/12 04:11:48;;;;;;;;;3.00;3.00;;;;;;;;5049916;28;45273;-73
2022/05/12 04:14:13;;;;;;;;;2.75;2.25;;;;;;;;5050631;28;45394;-73
2022/05/12 04:16:39;;;;;;;;;6.75;4.00;;;;;;;;5053500;28;45356;-73
2022/05/12 04:19:05;;;;;;;;;3.25;3.00;;;;;;;;5051466;28;45467;-73
2022/05/12 04:21:32;;;;;;;;;7.50;7.00;;;;;;;;5042690;28;45684;-73
2022/05/12 04:23:57;;;;;;;;;2.25;2.25;;;;;;;;5049331;28;45286;-73
2022/05/12 04:26:23;;;;;;;;;3.75;2.00;;;;;;;;5052472;27;45514;-74
2022/05/12 04:28:48;;;;;;;;;1.75;1.75;;;;;;;;5066519;28;45509;-73
2022/05/12 04:31:13;;;;;;;;;2.00;2.00;;;;;;;;5058615;28;45477;-73
2022/05/12 04:36:22;;;;;;;;;4.00;3.00;;;;;;;;5050401;28;45948;-73
2022/05/12 04:38:47;;;;;;;;;2.00;1.00;;;;;;;;5053186;28;45548;-73
2022/05/12 04:41:12;;;;;;;;;4.00;3.00;;;;;;;;5053343;28;45394;-74
2022/05/12 04:43:38;;;;;;;;;0.75;0.75;;;;;;;;5051395;27;45617;-70
2022/05/12 04:46:03;;;;;;;;;3.75;2.00;;;;;;;;5054252;28;45491;-71
2022/05/12 04:48:31;;;;;;;;;2.25;2.25;;;;;;;;5049722;28;45553;-71
2022/05/12 04:50:57;;;;;;;;;3.75;3.75;;;;;;;;5052098;28;45310;-71
2022/05/12 04:53:22;;;;;;;;;4.00;3.25;;;;;;;;5057274;27;45472;-73
2022/05/12 04:55:47;;;;;;;;;5.25;3.25;;;;;;;;5048528;28;46223;-73
2022/05/12 04:58:13;;;;;;;;;9.75;9.25;;;;;;;;5048466;28;45239;-75
2022/05/12 05:00:40;;;;;;;;;8.25;8.25;;;;;;;;5044743;28;45332;-73
2022/05/12 05:03:06;;;;;;;;;3.25;2.00;;;;;;;;5056349;28;45492;-72
2022/05/12 05:05:32;;;;;;;;;7.00;5.00;;;;;;;;5056015;28;46414;-72
2022/05/12 05:07:57;;;;;;;;;3.25;3.25;;;;;;;;5030085;28;45377;-73
2022/05/12 05:10:23;;;;;;;;;3.75;2.25;;;;;;;;5047445;28;45419;-74
2022/05/12 05:12:48;;;;;;;;;7.00;4.25;;;;;;;;5045212;28;45583;-72
2022/05/12 05:15:14;;;;;;;;;6.25;6.00;;;;;;;;5052041;28;46114;-73
2022/05/12 05:17:40;;;;;;;;;5.00;4.00;;;;;;;;5045511;28;45366;-73
2022/05/12 05:20:06;;;;;;;;;4.00;2.75;;;;;;;;5056580;28;45313;-73
2022/05/12 05:22:33;;;;;;;;;5.00;4.00;;;;;;;;5056616;28;45360;-73
2022/05/12 05:24:58;;;;;;;;;5.25;4.00;;;;;;;;5056770;28;47015;-70
2022/05/12 05:27:23;;;;;;;;;7.00;7.00;;;;;;;;5053331;28;45423;-73
2022/05/12 05:29:49;;;;;;;;;8.00;7.75;;;;;;;;5057869;28;45525;-74
2022/05/12 05:32:15;;;;;;;;;5.50;4.25;;;;;;;;5055765;28;45565;-73
2022/05/12 05:34:41;;;;;;;;;10.00;8.00;;;;;;;;5054117;28;46919;-71
2022/05/12 05:37:06;;;;;;;;;6.00;5.00;;;;;;;;5056174;27;45387;-72
2022/05/12 05:39:31;;;;;;;;;7.25;4.00;;;;;;;;5055344;28;45368;-73
2022/05/12 05:41:59;;;;;;;;;3.50;3.50;;;;;;;;5056935;28;45363;-75
2022/05/12 05:44:24;;;;;;;;;4.00;4.00;;;;;;;;5058526;27;46252;-75
2022/05/12 05:46:49;;;;;;;;;4.75;4.75;;;;;;;;5061074;28;45744;-77
2022/05/12 05:49:15;;;;;;;;;2.75;2.75;;;;;;;;5057528;28;45473;-77
2022/05/12 05:54:24;;;;;;;;;6.00;5.00;;;;;;;;5044455;28;46227;-77
2022/05/12 05:56:49;;;;;;;;;7.00;5.75;;;;;;;;5051255;27;45582;-77
2022/05/12 05:59:14;;;;;;;;;6.25;6.25;;;;;;;;5051249;28;47942;-76
2022/05/12 06:01:40;;;;;;;;;4.00;4.00;;;;;;;;5039301;28;45320;-77
2022/05/12 06:04:05;;;;;;;;;5.25;4.00;;;;;;;;5042913;28;45498;-76
2022/05/12 06:06:31;;;;;;;;;5.25;4.00;;;;;;;;5048852;28;45218;-77
2022/05/12 06:08:57;;;;;;;;;6.00;6.00;;;;;;;;5048938;28;45433;-77
2022/05/12 06:11:22;;;;;;;;;10.50;7.50;;;;;;;;5037560;28;45310;-77
2022/05/12 06:13:48;;;;;;;;;9.50;8.00;;;;;;;;5053152;28;46221;-76
2022/05/12 06:16:14;;;;;;;;;3.75;3.75;;;;;;;;5035027;28;45277;-77
2022/05/12 06:18:41;;;;;;;;;3.00;3.00;;;;;;;;5047992;28;45503;-78
2022/05/12 06:21:09;;;;;;;;;4.25;3.00;;;;;;;;5047700;28;45414;-78
2022/05/12 06:23:34;;;;;;;;;9.50;6.50;;;;;;;;5048348;28;46205;-77
2022/05/12 06:26:00;;;;;;;;;7.50;4.75;;;;;;;;5034593;28;45482;-79
2022/05/12 06:28:25;;;;;;;;;6.00;6.00;;;;;;;;5050560;28;45411;-77
2022/05/12 06:30:50;;;;;;;;;5.50;4.00;;;;;;;;5048927;28;45485;-78
2022/05/12 06:33:17;;;;;;;;;9.00;3.25;;;;;;;;5044466;28;47271;-77
2022/05/12 06:35:43;;;;;;;;;8.75;6.00;;;;;;;;5048319;28;45459;-77
2022/05/12 06:38:09;;;;;;;;;6.75;5.00;;;;;;;;5055765;28;45229;-77
2022/05/12 06:40:34;;;;;;;;;5.75;2.75;;;;;;;;5054996;28;45435;-78
2022/05/12 06:43:03;;;;;;;;;6.25;6.25;;;;;;;;5057332;28;46086;-78
2022/05/12 06:45:28;;;;;;;;;5.00;5.00;;;;;;;;5056285;28;45546;-78
2022/05/12 06:47:53;;;;;;;;;5.75;4.50;;;;;;;;5059857;28;45511;-78
2022/05/12 06:50:21;;;;;;;;;9.25;7.25;;;;;;;;5060238;28;45331;-78
2022/05/12 06:52:47;;;;;;;;;7.00;4.00;;;;;;;;5039865;28;46382;-76
2022/05/12 06:55:13;;;;;;;;;6.25;3.00;;;;;;;;5061955;27;45340;-77
2022/05/12 06:57:38;;;;;;;;;7.00;5.00;;;;;;;;5059999;27;45306;-77
2022/05/12 07:00:04;;;;;;;;;5.75;4.50;;;;;;;;5061120;28;45471;-78
2022/05/12 07:02:30;;;;;;;;;6.25;3.50;;;;;;;;5057914;27;46040;-78
2022/05/12 07:04:55;;;;;;;;;5.25;3.25;;;;;;;;5056081;28;45266;-78
2022/05/12 07:07:20;;;;;;;;;5.50;3.00;;;;;;;;5060243;28;45655;-78
2022/05/12 07:09:46;;;;;;;;;4.00;4.00;;;;;;;;5060869;28;45464;-78
2022/05/12 07:12:13;;;;;;;;;6.25;2.25;;;;;;;;5059536;28;47042;-76
2022/05/12 07:14:38;;;;;;;;;6.00;6.00;;;;;;;;5058990;27;45469;-78
2022/05/12 07:17:03;;;;;;;;;6.00;3.75;;;;;;;;5057066;28;45472;-77
2022/05/12 07:19:31;;;;;;;;;2.00;2.00;;;;;;;;5057043;28;45392;-78
2022/05/12 07:27:23;;;;;;;;;6.25;4.50;;;;;;;;5058647;28;45488;-78
2022/05/12 07:29:48;;;;;;;;;10.50;5.00;;;;;;;;5058700;27;45411;-77
2022/05/12 07:32:14;;;;;;;;;3.25;3.25;;;;;;;;5057774;27;47536;-76
2022/05/12 07:34:40;;;;;;;;;6.25;6.25;;;;;;;;5054568;28;45456;-76
2022/05/12 07:37:05;;;;;;;;;3.75;2.00;;;;;;;;5059727;28;45406;-78
2022/05/12 07:39:31;;;;;;;;;4.00;4.00;;;;;;;;5058629;28;45575;-78
2022/05/12 07:41:57;;;;;;;;;7.25;6.25;;;;;;;;5040344;28;48293;-76
2022/05/12 07:44:29;;;;;;;;;1.50;0.75;;;;;;;;5058762;28;45786;-78
2022/05/12 07:46:54;;;;;;;;;3.00;3.00;;;;;;;;5036620;28;45622;-77
2022/05/12 07:49:19;;;;;;;;;9.25;6.00;;;;;;;;5061085;28;45406;-77
2022/05/12 07:51:45;;;;;;;;;4.00;3.00;;;;;;;;5068267;28;46861;-77
2022/05/12 07:54:10;;;;;;;;;1.50;1.50;;;;;;;;5061359;28;45542;-76
2022/05/12 07:56:35;;;;;;;;;4.50;4.50;;;;;;;;5057256;28;45755;-76
2022/05/12 07:59:00;;;;;;;;;2.00;2.00;;;;;;;;5069803;28;45482;-77
2022/05/12 08:01:26;;;;;;;;;3.75;3.00;;;;;;;;5058592;27;45925;-77
2022/05/12 08:03:52;;;;;;;;;9.25;6.50;;;;;;;;5060173;28;45892;-78
2022/05/12 08:06:18;;;;;;;;;8.00;3.75;;;;;;;;5058341;27;45290;-78
2022/05/12 08:08:44;;;;;;;;;3.00;3.00;;;;;;;;5057002;28;45483;-77
2022/05/12 08:11:10;;;;;;;;;3.25;1.75;;;;;;;;5069482;28;46107;-77
2022/05/12 08:13:35;;;;;;;;;4.00;4.00;;;;;;;;5036271;28;45358;-77
2022/05/12 08:16:02;;;;;;;;;5.00;4.00;;;;;;;;5060108;28;45369;-77
2022/05/12 08:18:27;;;;;;;;;6.00;6.00;;;;;;;;5057640;28;45395;-77
2022/05/12 08:20:53;;;;;;;;;6.25;3.50;;;;;;;;5055675;28;45436;-77
2022/05/12 08:23:19;;;;;;;;;23.00;19.25;;;;;;;;5057955;28;45480;-77
2022/05/12 08:25:44;;;;;;;;;2.75;2.75;;;;;;;;5054077;28;45410;-77
2022/05/12 08:28:12;;;;;;;;;3.00;3.00;;;;;;;;5060141;27;45446;-77
2022/05/12 08:30:37;;;;;;;;;3.50;2.00;;;;;;;;5057732;28;46163;-77
2022/05/12 08:33:02;;;;;;;;;5.00;2.00;;;;;;;;5057131;28;45387;-78
2022/05/12 08:35:28;;;;;;;;;2.50;2.50;;;;;;;;5057762;28;45383;-77
2022/05/12 08:37:53;;;;;;;;;3.00;2.75;;;;;;;;5053831;28;45628;-77
2022/05/12 08:40:38;;;;;;;;;2.25;2.25;;;;;;;;5058563;28;45330;-77
2022/05/12 08:43:15;;;;;;;;;4.00;3.00;;;;;;;;4976584;28;45419;-77
2022/05/12 08:45:40;;;;;;;;;3.25;3.25;;;;;;;;4976539;28;45595;-77
2022/05/12 08:48:07;;;;;;;;;3.75;2.00;;;;;;;;4978421;28;45408;-77
2022/05/12 08:50:33;;;;;;;;;5.00;4.00;;;;;;;;4983340;28;45452;-77
2022/05/12 08:53:02;;;;;;;;;3.00;1.50;;;;;;;;4986487;28;45375;-77
2022/05/12 08:55:32;;;;;;;;;3.00;2.75;;;;;;;;4988712;28;45467;-75
2022/05/12 08:58:03;;;;;;;;;4.00;4.00;;;;;;;;4985840;28;45633;-77
2022/05/12 09:00:33;;;;;;;;;2.75;2.25;;;;;;;;4978148;28;46936;-76
2022/05/12 09:02:58;;;;;;;;;1.00;1.00;;;;;;;;4977077;28;45580;-78
2022/05/12 09:05:28;;;;;;;;;5.50;5.50;;;;;;;;4983569;28;45350;-78
2022/05/12 09:07:54;;;;;;;;;3.25;3.25;;;;;;;;4988252;28;45314;-78
2022/05/12 09:10:19;;;;;;;;;3.00;3.00;;;;;;;;4977525;28;46186;-76
2022/05/12 09:12:49;;;;;;;;;5.00;4.25;;;;;;;;4984923;28;45456;-76
2022/05/12 09:15:23;;;;;;;;;3.00;3.00;;;;;;;;4977121;28;45561;-78
2022/05/12 09:17:56;;;;;;;;;2.00;2.00;;;;;;;;4976595;28;45504;-77
2022/05/12 09:20:21;;;;;;;;;2.25;2.25;;;;;;;;5009847;28;46201;-78
2022/05/12 09:22:47;;;;;;;;;1.75;1.75;;;;;;;;5012750;28;45332;-77
2022/05/12 09:25:26;;;;;;;;;3.50;3.00;;;;;;;;5019213;28;45312;-78
2022/05/12 09:27:52;;;;;;;;;3.00;3.00;;;;;;;;5018116;28;45446;-76
2022/05/12 09:30:29;;;;;;;;;5.00;4.00;;;;;;;;5016525;28;47254;-78
2022/05/12 09:32:58;;;;;;;;;6.00;1.00;;;;;;;;5016943;28;45327;-78
2022/05/12 09:35:25;;;;;;;;;2.00;1.75;;;;;;;;5019617;28;45591;-76
2022/05/12 09:37:51;;;;;;;;;1.00;1.00;;;;;;;;5025799;28;45316;-77
2022/05/12 09:40:19;;;;;;;;;3.00;3.00;;;;;;;;5021914;28;45374;-78
2022/05/12 09:42:46;;;;;;;;;1.00;1.00;;;;;;;;5016381;28;45439;-77
2022/05/12 09:45:31;;;;;;;;;1.75;1.75;;;;;;;;5017370;28;45451;-76
2022/05/12 09:48:15;;;;;;;;;3.50;2.00;;;;;;;;5018649;28;45452;-78
2022/05/12 09:50:40;;;;;;;;;1.25;1.25;;;;;;;;5026177;28;45461;-77
2022/05/12 09:53:06;;;;;;;;;2.75;2.75;;;;;;;;5013920;28;45281;-78
2022/05/12 09:55:39;;;;;;;;;2.00;2.00;;;;;;;;5014730;28;45373;-78
2022/05/12 09:58:10;;;;;;;;;2.25;2.25;;;;;;;;5016919;28;45395;-77
2022/05/12 10:00:36;;;;;;;;;4.25;1.50;;;;;;;;5016477;28;45997;-78
2022/05/12 10:08:45;;;;;;;;;2.00;2.00;;;;;;;;5016746;28;45265;-77
2022/05/12 10:11:12;;;;;;;;;0.50;0.00;;;;;;;;5014938;28;46110;-78
2022/05/12 10:13:53;;;;;;;;;6.50;4.25;;;;;;;;5036829;28;45405;-77
2022/05/12 10:16:20;;;;;;;;;1.00;1.00;;;;;;;;5067024;27;45295;-78
2022/05/12 10:18:48;;;;;;;;;2.25;1.75;;;;;;;;5056970;28;45331;-77
2022/05/12 10:21:32;;;;;;;;;3.00;2.00;;;;;;;;5058195;28;45461;-77
2022/05/12 10:24:18;;;;;;;;;1.00;1.00;;;;;;;;5059242;28;45440;-78
2022/05/12 10:26:46;;;;;;;;;2.00;2.00;;;;;;;;5058504;28;45516;-74
2022/05/12 10:29:20;;;;;;;;;2.00;1.25;;;;;;;;5060633;28;45358;-77
2022/05/12 10:31:54;;;;;;;;;3.50;1.25;;;;;;;;5055451;28;45344;-78
2022/05/12 10:34:19;;;;;;;;;3.25;1.25;;;;;;;;5070158;27;45414;-77
2022/05/12 10:36:45;;;;;;;;;4.75;2.00;;;;;;;;5060710;27;45446;-77
2022/05/12 10:39:16;;;;;;;;;1.00;1.00;;;;;;;;5060023;28;45511;-78
2022/05/12 10:42:00;;;;;;;;;1.50;1.50;;;;;;;;5057898;28;46976;-77
2022/05/12 10:44:39;;;;;;;;;4.75;1.00;;;;;;;;5070686;28;45445;-77
2022/05/12 10:47:24;;;;;;;;;2.50;2.00;;;;;;;;5058604;28;45501;-77
2022/05/12 10:49:52;;;;;;;;;4.50;4.00;;;;;;;;4978790;28;45347;-77
2022/05/12 10:52:37;;;;;;;;;1.75;1.75;;;;;;;;4998481;28;47190;-77
2022/05/12 10:55:05;;;;;;;;;4.00;3.00;;;;;;;;4999436;28;45390;-78
2022/05/12 10:57:40;;;;;;;;;5.50;2.50;;;;;;;;4998799;28;45420;-77
2022/05/12 11:00:22;;;;;;;;;0.75;0.75;;;;;;;;5000896;28;45488;-77
2022/05/12 11:02:49;;;;;;;;;1.00;1.00;;;;;;;;5009594;28;47186;-77
2022/05/12 11:05:21;;;;;;;;;2.75;2.00;;;;;;;;5019304;28;44917;-77
2022/05/12 11:07:52;;;;;;;;;3.75;2.00;;;;;;;;5009042;28;45159;-77
2022/05/12 11:10:31;;;;;;;;;2.75;2.75;;;;;;;;5017085;28;45432;-77
2022/05/12 11:13:00;;;;;;;;;1.00;1.00;;;;;;;;4999692;28;46239;-78
2022/05/12 11:15:27;;;;;;;;;3.75;2.25;;;;;;;;4999472;28;45441;-77
2022/05/12 11:18:02;;;;;;;;;4.00;4.00;;;;;;;;4999831;28;45466;-77
2022/05/12 11:20:27;;;;;;;;;0.75;0.75;;;;;;;;4999200;28;45444;-77
2022/05/12 11:22:55;;;;;;;;;3.75;2.00;;;;;;;;4995355;28;45432;-78
2022/05/12 11:25:43;;;;;;;;;1.00;1.00;;;;;;;;4998032;28;45507;-77
2022/05/12 11:31:07;;;;;;;;;1.50;1.50;;;;;;;;5029565;28;45573;-77
2022/05/12 11:33:33;;;;;;;;;4.25;3.75;;;;;;;;5001491;28;47119;-77
2022/05/12 11:35:59;;;;;;;;;3.75;3.75;;;;;;;;5021679;28;45519;-76
2022/05/12 11:38:39;;;;;;;;;0.00;0.00;;;;;;;;5016506;28;47010;-78
2022/05/12 11:41:27;;;;;;;;;2.50;1.00;;;;;;;;5013947;28;45539;-78
2022/05/12 11:47:11;;;;;;;;;4.00;3.75;;;;;;;;5010586;28;45234;-76
2022/05/12 11:49:42;;;;;;;;;2.33;1.00;;;;;;;;5027800;28;45700;-78
2022/05/12 11:52:22;;;;;;;;;2.50;2.00;;;;;;;;5018143;28;45530;-77
2022/05/12 11:54:52;;;;;;;;;3.50;3.50;;;;;;;;5015109;28;47257;-76
2022/05/12 11:57:25;;;;;;;;;2.33;2.00;;;;;;;;5016123;28;45534;-78
2022/05/12 11:59:57;;;;;;;;;2.50;2.50;;;;;;;;5016240;28;45620;-77
2022/05/12 12:02:29;;;;;;;;;2.00;2.00;;;;;;;;5011616;28;45577;-77
2022/05/12 12:04:55;;;;;;;;;3.00;3.00;;;;;;;;5043072;28;47255;-77
2022/05/12 12:07:20;;;;;;;;;1.33;1.00;;;;;;;;5058813;28;45365;-77
2022/05/12 12:09:46;;;;;;;;;2.25;2.25;;;;;;;;5058749;28;45480;-76
2022/05/12 12:12:31;;;;;;;;;2.25;1.50;;;;;;;;5058367;27;45537;-77
2022/05/12 12:14:58;;;;;;;;;3.00;2.00;;;;;;;;5058191;28;47200;-78
2022/05/12 12:17:24;;;;;;;;;2.25;2.00;;;;;;;;5058553;28;45454;-76
2022/05/12 12:19:49;;;;;;;;;3.75;2.75;;;;;;;;5054384;28;45439;-77
2022/05/12 12:22:17;;;;;;;;;2.00;2.00;;;;;;;;5061167;28;45260;-77
2022/05/12 12:24:49;;;;;;;;;2.67;2.00;;;;;;;;5057822;27;45394;-78
2022/05/12 12:27:16;;;;;;;;;3.00;2.00;;;;;;;;5057723;28;45259;-78
2022/05/12 12:29:47;;;;;;;;;6.25;5.25;;;;;;;;5056681;28;45410;-77
2022/05/12 12:32:18;;;;;;;;;4.00;2.33;;;;;;;;5057207;28;45488;-77
2022/05/12 12:34:51;;;;;;;;;2.00;2.00;;;;;;;;5054168;28;46708;-77
2022/05/12 12:37:36;;;;;;;;;2.25;2.25;;;;;;;;5066889;27;45554;-77
2022/05/12 12:40:22;;;;;;;;;3.00;3.00;;;;;;;;5058191;28;45416;-77
2022/05/12 12:42:47;;;;;;;;;4.00;3.00;;;;;;;;5055842;28;45411;-77
2022/05/12 12:45:18;;;;;;;;;0.50;0.50;;;;;;;;5056142;28;45541;-77
2022/05/12 12:47:48;;;;;;;;;2.75;2.75;;;;;;;;5058640;28;45380;-77
2022/05/12 12:50:16;;;;;;;;;2.00;1.00;;;;;;;;5056627;28;45330;-78
2022/05/12 12:52:43;;;;;;;;;3.00;3.00;;;;;;;;5053813;28;45513;-78
2022/05/12 12:58:00;;;;;;;;;4.00;2.00;;;;;;;;5058410;28;45339;-77
2022/05/12 13:00:28;;;;;;;;;2.50;2.00;;;;;;;;5057733;27;45415;-76
2022/05/12 13:02:55;;;;;;;;;3.00;1.67;;;;;;;;5057683;28;45476;-78
2022/05/12 13:05:21;;;;;;;;;1.67;1.67;;;;;;;;5056271;28;47184;-77
2022/05/12 13:07:57;;;;;;;;;0.33;0.33;;;;;;;;5051893;28;45808;-77
2022/05/12 13:10:23;;;;;;;;;3.67;3.67;;;;;;;;5067275;28;45311;-77
2022/05/12 13:13:00;;;;;;;;;3.67;2.00;;;;;;;;5058292;28;45548;-77
2022/05/12 13:15:26;;;;;;;;;4.67;2.67;;;;;;;;5055562;27;46903;-77
2022/05/12 13:17:54;;;;;;;;;1.67;0.67;;;;;;;;5055590;28;45424;-77
2022/05/12 13:20:21;;;;;;;;;3.67;2.33;;;;;;;;5038296;28;45380;-77
2022/05/12 13:22:46;;;;;;;;;2.00;2.00;;;;;;;;5052405;28;45694;-77
2022/05/12 13:25:15;;;;;;;;;5.50;3.00;;;;;;;;5059257;28;45536;-78
2022/05/12 13:27:41;;;;;;;;;2.00;2.00;;;;;;;;5063547;28;45422;-76
2022/05/12 13:30:13;;;;;;;;;5.33;3.00;;;;;;;;5062397;28;45393;-78
2022/05/12 13:32:44;;;;;;;;;2.00;1.67;;;;;;;;5056456;28;45484;-77
2022/05/12 13:35:15;;;;;;;;;1.67;1.67;;;;;;;;5038743;28;47073;-78
2022/05/12 13:37:48;;;;;;;;;2.33;1.00;;;;;;;;5037119;28;45347;-78
2022/05/12 13:40:32;;;;;;;;;2.00;2.00;;;;;;;;5061230;27;45304;-77
2022/05/12 13:42:58;;;;;;;;;1.67;0.00;;;;;;;;5060592;28;45237;-77
2022/05/12 13:45:25;;;;;;;;;2.00;2.00;;;;;;;;5061677;28;45957;-77
2022/05/12 13:47:51;;;;;;;;;3.00;1.33;;;;;;;;5057215;28;45605;-77
2022/05/12 13:50:17;;;;;;;;;7.33;4.33;;;;;;;;5067987;27;45566;-78
2022/05/12 13:52:45;;;;;;;;;2.00;2.00;;;;;;;;5052865;28;45704;-78
2022/05/12 13:55:24;;;;;;;;;2.00;2.00;;;;;;;;5059301;28;46230;-77
2022/05/12 13:57:51;;;;;;;;;2.00;2.00;;;;;;;;5059239;28;45405;-77
2022/05/12 14:00:18;;;;;;;;;3.00;2.00;;;;;;;;5060033;28;45546;-76
2022/05/12 14:02:45;;;;;;;;;2.00;2.00;;;;;;;;5060316;28;45209;-78
2022/05/12 14:05:10;;;;;;;;;3.00;2.00;;;;;;;;5057946;28;46973;-78
2022/05/12 14:07:36;;;;;;;;;6.67;3.00;;;;;;;;5056814;28;45454;-77
2022/05/12 14:10:20;;;;;;;;;2.00;2.00;;;;;;;;5061715;28;45383;-78
2022/05/12 14:20:57;;;;;;;;;0.67;0.67;;;;;;;;5064310;28;45518;-77
2022/05/12 14:23:22;;;;;;;;;1.67;1.67;;;;;;;;5072599;27;45755;-76
2022/05/12 14:25:48;;;;;;;;;3.00;1.00;;;;;;;;5057609;28;45516;-77
2022/05/12 14:28:13;;;;;;;;;3.67;2.00;;;;;;;;5064060;28;45407;-77
2022/05/12 14:30:39;;;;;;;;;2.33;2.33;;;;;;;;5062553;28;45257;-77
2022/05/12 14:33:04;;;;;;;;;2.67;0.33;;;;;;;;5060110;27;45474;-77
2022/05/12 14:35:30;;;;;;;;;5.00;4.00;;;;;;;;5059043;27;47066;-77
2022/05/12 14:37:56;;;;;;;;;3.75;3.00;;;;;;;;5055788;28;45365;-77
2022/05/12 14:40:23;;;;;;;;;3.67;3.67;;;;;;;;5060739;28;45312;-77
2022/05/12 14:42:48;;;;;;;;;2.00;1.00;;;;;;;;5059101;27;45337;-78
2022/05/12 14:45:14;;;;;;;;;2.00;2.00;;;;;;;;5058557;28;46088;-77
2022/05/12 14:47:41;;;;;;;;;3.00;1.33;;;;;;;;5060047;28;45379;-78
2022/05/12 14:50:07;;;;;;;;;1.33;1.33;;;;;;;;5058460;28;45461;-78
2022/05/12 14:52:33;;;;;;;;;0.00;0.00;;;;;;;;5058259;28;45289;-77
2022/05/12 14:54:58;;;;;;;;;2.00;2.00;;;;;;;;5061417;27;47210;-77
2022/05/12 14:57:24;;;;;;;;;2.00;1.00;;;;;;;;5058645;28;45509;-77
2022/05/12 14:59:50;;;;;;;;;2.00;2.00;;;;;;;;5059682;28;45418;-77
2022/05/12 15:02:19;;;;;;;;;0.00;0.00;;;;;;;;5060310;28;45395;-78
2022/05/12 15:04:45;;;;;;;;;1.00;1.00;;;;;;;;5057877;28;46271;-77
2022/05/12 15:07:12;;;;;;;;;1.00;1.00;;;;;;;;5063190;27;45375;-77
2022/05/12 15:09:38;;;;;;;;;2.00;2.00;;;;;;;;5061652;28;45264;-77
2022/05/12 15:12:03;;;;;;;;;3.00;1.67;;;;;;;;5060756;27;45346;-77
2022/05/12 15:14:29;;;;;;;;;3.00;1.00;;;;;;;;5060861;27;46310;-77
2022/05/12 15:16:54;;;;;;;;;4.00;2.00;;;;;;;;5056425;28;45226;-78
2022/05/12 15:19:20;;;;;;;;;2.00;1.33;;;;;;;;5061669;27;45337;-77